createdAt,value
2022-09-14T00:02:44.053Z,7.03
2022-09-14T00:07:48.519Z,7.68
2022-09-14T00:12:53.052Z,7.65
2022-09-14T00:17:59.324Z,6.88
2022-09-14T00:23:04.907Z,7.45
2022-09-14T00:28:09.965Z,6.35
2022-09-14T00:33:15.562Z,6.45
2022-09-14T00:38:19.476Z,6.40
2022-09-14T00:43:26.234Z,6.13
2022-09-14T00:48:32.439Z,6.20
2022-09-14T00:53:37.751Z,5.53
2022-09-14T00:58:44.509Z,6.70
2022-09-14T01:03:48.557Z,5.68
2022-09-14T01:09:05.096Z,5.88
2022-09-14T01:14:19.292Z,6.47
2022-09-14T01:19:32.916Z,6.05
2022-09-14T01:24:48.541Z,5.30
2022-09-14T01:30:03.562Z,5.60
2022-09-14T01:35:15.925Z,5.95
2022-09-14T01:40:29.330Z,4.65
2022-09-14T01:45:38.662Z,4.13
2022-09-14T01:50:46.493Z,4.32
2022-09-14T01:55:54.819Z,4.28
2022-09-14T02:01:03.421Z,4.38
2022-09-14T02:06:13.099Z,4.78
2022-09-14T02:11:16.455Z,4.82
2022-09-14T02:16:23.322Z,4.40
2022-09-14T02:21:32.468Z,4.03
2022-09-14T02:26:36.916Z,4.43
2022-09-14T02:31:57.459Z,4.07
2022-09-14T02:37:05.440Z,4.38
2022-09-14T02:42:19.934Z,3.72
2022-09-14T02:47:30.460Z,3.17
2022-09-14T02:52:38.885Z,3.45
2022-09-14T02:58:10.704Z,3.22
2022-09-14T03:03:17.154Z,6.05
2022-09-14T03:08:23.813Z,2.70
2022-09-14T03:13:29.984Z,2.85
2022-09-14T03:18:35.497Z,2.78
2022-09-14T03:23:39.952Z,3.33
2022-09-14T03:28:46.405Z,2.83
2022-09-14T03:34:00.086Z,2.72
2022-09-14T03:39:04.651Z,3.30
2022-09-14T03:44:18.298Z,3.17
2022-09-14T03:49:22.967Z,2.88
2022-09-14T03:54:26.475Z,3.50
2022-09-14T03:59:29.989Z,3.03
2022-09-14T04:04:34.413Z,3.00
2022-09-14T04:09:41.003Z,2.40
2022-09-14T04:14:45.090Z,2.05
2022-09-14T04:19:52.128Z,2.03
2022-09-14T04:24:56.932Z,2.28
2022-09-14T04:30:02.865Z,4.38
2022-09-14T04:35:08.530Z,2.70
2022-09-14T04:40:13.566Z,2.08
2022-09-14T04:45:17.743Z,2.40
2022-09-14T04:50:22.870Z,2.42
2022-09-14T04:55:29.069Z,2.47
2022-09-14T05:00:36.207Z,2.55
2022-09-14T05:05:44.815Z,2.22
2022-09-14T05:10:50.534Z,2.20
2022-09-14T05:15:54.289Z,2.17
2022-09-14T05:21:07.593Z,2.00
2022-09-14T05:26:14.720Z,2.15
2022-09-14T05:31:18.078Z,2.47
2022-09-14T05:36:30.452Z,2.03
2022-09-14T05:41:33.918Z,2.33
2022-09-14T05:46:38.784Z,2.00
2022-09-14T05:51:46.440Z,1.75
2022-09-14T05:56:52.941Z,1.95
2022-09-14T06:01:57.589Z,2.10
2022-09-14T06:07:18.310Z,2.10
2022-09-14T06:12:26.199Z,2.22
2022-09-14T06:17:31.583Z,2.72
2022-09-14T06:22:37.701Z,1.80
2022-09-14T06:27:44.480Z,2.30
2022-09-14T06:32:48.891Z,2.10
2022-09-14T06:37:56.355Z,2.00
2022-09-14T06:43:02.558Z,1.88
2022-09-14T06:48:14.681Z,2.17
2022-09-14T06:53:27.375Z,1.83
2022-09-14T06:58:31.985Z,1.98
2022-09-14T07:03:38.592Z,1.48
2022-09-14T07:08:44.745Z,1.40
2022-09-14T07:13:55.189Z,1.90
2022-09-14T07:19:07.986Z,2.20
2022-09-14T07:24:16.561Z,2.33
2022-09-14T07:29:22.123Z,2.20
2022-09-14T07:34:31.377Z,2.13
2022-09-14T07:39:40.014Z,2.30
2022-09-14T07:44:53.989Z,2.15
2022-09-14T07:49:58.786Z,2.35
2022-09-14T07:55:03.563Z,2.28
2022-09-14T08:00:09.236Z,1.70
2022-09-14T08:05:13.118Z,2.28
2022-09-14T08:10:18.012Z,2.10
2022-09-14T08:15:25.156Z,2.22
2022-09-14T08:20:31.024Z,1.90
2022-09-14T08:25:36.060Z,2.75
2022-09-14T08:30:39.821Z,2.03
2022-09-14T08:36:01.364Z,2.47
2022-09-14T08:41:13.536Z,1.92
2022-09-14T08:46:29.778Z,2.38
2022-09-14T08:51:33.345Z,2.35
2022-09-14T08:56:41.912Z,2.30
2022-09-14T09:01:54.976Z,1.70
2022-09-14T09:07:06.208Z,1.70
2022-09-14T09:12:17.690Z,2.92
2022-09-14T09:17:26.470Z,1.70
2022-09-14T09:22:39.825Z,1.58
2022-09-14T09:27:44.635Z,1.73
2022-09-14T09:32:48.803Z,1.80
2022-09-14T09:37:52.436Z,1.70
2022-09-14T09:43:10.805Z,1.02
2022-09-14T09:48:16.780Z,1.65
2022-09-14T09:53:23.922Z,1.30
2022-09-14T09:58:36.919Z,1.27
2022-09-14T10:03:42.278Z,1.25
2022-09-14T10:08:50.806Z,1.25
2022-09-14T10:13:57.143Z,1.20
2022-09-14T10:19:03.075Z,1.20
2022-09-14T10:24:19.970Z,1.40
2022-09-14T10:34:54.132Z,1.30
2022-09-14T10:40:15.995Z,1.08
2022-09-14T10:45:29.922Z,1.20
2022-09-14T10:50:46.653Z,1.30
2022-09-14T10:56:00.205Z,1.38
2022-09-14T11:01:20.366Z,1.35
2022-09-14T11:06:47.112Z,2.15
2022-09-14T11:11:59.017Z,1.73
2022-09-14T11:17:22.538Z,1.60
2022-09-14T11:22:37.300Z,1.38
2022-09-14T11:27:45.947Z,1.75
2022-09-14T11:32:56.152Z,1.95
2022-09-14T11:38:04.759Z,1.70
2022-09-14T11:43:19.721Z,1.20
2022-09-14T11:48:42.764Z,2.05
2022-09-14T11:53:48.531Z,1.50
2022-09-14T11:58:52.338Z,1.92
2022-09-14T12:04:12.356Z,1.63
2022-09-14T12:09:53.497Z,2.10
2022-09-14T12:15:03.726Z,1.70
2022-09-14T12:20:44.974Z,2.22
2022-09-14T12:25:58.540Z,1.75
2022-09-14T12:31:18.396Z,1.63
2022-09-14T12:36:58.629Z,2.15
2022-09-14T12:42:29.172Z,3.17
2022-09-14T12:48:00.725Z,1.65
2022-09-14T12:53:23.109Z,1.70
2022-09-14T12:58:45.642Z,2.17
2022-09-14T13:03:52.231Z,2.60
2022-09-14T13:09:00.170Z,1.88
2022-09-14T13:14:09.000Z,1.95
2022-09-14T13:19:26.965Z,2.15
2022-09-14T13:24:34.875Z,2.38
2022-09-14T13:29:41.557Z,2.15
2022-09-14T13:34:50.739Z,2.00
2022-09-14T13:39:58.949Z,2.42
2022-09-14T13:45:08.490Z,2.40
2022-09-14T13:50:16.364Z,2.65
2022-09-14T13:55:25.772Z,2.10
2022-09-14T14:00:36.591Z,2.45
2022-09-14T14:05:43.986Z,2.15
2022-09-14T14:10:56.632Z,2.28
2022-09-14T14:16:21.810Z,4.28
2022-09-14T14:21:29.584Z,2.40
2022-09-14T14:26:38.107Z,2.53
2022-09-14T14:31:45.111Z,2.17
2022-09-14T14:36:53.434Z,2.50
2022-09-14T14:42:04.284Z,2.58
2022-09-14T14:47:16.929Z,2.60
2022-09-14T14:52:20.382Z,2.53
2022-09-14T14:57:25.029Z,2.30
2022-09-14T15:02:33.032Z,3.70
2022-09-14T15:07:39.512Z,3.53
2022-09-14T15:12:44.971Z,2.42
2022-09-14T15:17:53.329Z,1.88
2022-09-14T15:22:57.317Z,2.20
2022-09-14T15:28:01.687Z,2.63
2022-09-14T15:33:06.631Z,2.42
2022-09-14T15:38:19.212Z,3.40
2022-09-14T15:43:33.070Z,2.65
2022-09-14T15:48:40.845Z,2.45
2022-09-14T15:53:48.090Z,2.08
2022-09-14T15:58:51.962Z,2.10
2022-09-14T16:04:09.659Z,4.13
2022-09-14T16:09:16.398Z,2.47
2022-09-14T16:14:21.415Z,2.70
2022-09-14T16:19:26.875Z,2.20
2022-09-14T16:24:31.281Z,2.33
2022-09-14T16:46:13.123Z,3.40
2022-09-14T16:51:21.054Z,3.10
2022-09-14T16:56:26.120Z,2.60
2022-09-14T17:07:01.556Z,2.05
2022-09-14T17:12:05.081Z,3.30
2022-09-14T17:17:08.031Z,2.03
2022-09-14T17:22:13.295Z,2.20
2022-09-14T17:27:17.326Z,2.00
2022-09-14T17:32:20.413Z,1.75
2022-09-14T17:37:24.919Z,2.00
2022-09-14T17:42:28.422Z,2.03
2022-09-14T17:47:31.826Z,2.58
2022-09-14T17:52:37.048Z,2.22
2022-09-14T17:57:40.291Z,2.25
2022-09-14T18:02:43.534Z,2.40
2022-09-14T18:07:49.528Z,2.08
2022-09-14T18:12:53.157Z,2.78
2022-09-14T18:17:56.357Z,3.22
2022-09-14T18:23:00.916Z,3.05
2022-09-14T18:28:04.209Z,2.58
2022-09-14T18:33:07.345Z,4.07
2022-09-14T18:38:13.513Z,3.03
2022-09-14T18:43:17.284Z,2.05
2022-09-14T18:48:20.564Z,3.00
2022-09-14T18:53:24.934Z,2.40
2022-09-14T18:58:28.100Z,2.90
2022-09-14T19:03:31.855Z,2.28
2022-09-14T19:08:36.887Z,2.53
2022-09-14T19:13:40.262Z,2.53
2022-09-14T19:18:44.557Z,2.75
2022-09-14T19:23:49.252Z,2.50
2022-09-14T19:28:53.067Z,2.88
2022-09-14T19:33:56.101Z,2.65
2022-09-14T19:39:02.613Z,3.75
2022-09-14T19:44:06.854Z,3.35
2022-09-14T19:49:15.030Z,3.55
2022-09-14T19:54:19.650Z,3.63
2022-09-14T19:59:22.681Z,4.18
2022-09-14T20:04:25.723Z,3.28
2022-09-14T20:09:30.106Z,3.38
2022-09-14T20:14:33.143Z,3.60
2022-09-14T20:19:36.649Z,3.10
2022-09-14T20:24:41.152Z,3.40
2022-09-14T20:29:44.069Z,4.15
2022-09-14T20:34:47.092Z,4.07
2022-09-14T20:39:51.596Z,4.35
2022-09-14T20:44:54.898Z,4.25
2022-09-14T20:49:58.215Z,4.07
2022-09-14T20:55:02.664Z,4.88
2022-09-14T21:00:06.654Z,3.50
2022-09-14T21:05:10.376Z,3.60
2022-09-14T21:10:14.832Z,4.68
2022-09-14T21:15:18.205Z,4.70
2022-09-14T21:20:21.451Z,7.03
2022-09-14T21:25:25.889Z,9.25
2022-09-14T21:30:28.932Z,9.00
2022-09-14T21:35:33.726Z,9.07
2022-09-14T21:40:38.236Z,8.48
2022-09-14T21:45:46.153Z,9.35
2022-09-14T21:50:49.757Z,7.95
2022-09-14T21:55:54.118Z,8.25
2022-09-14T22:00:58.875Z,9.30
2022-09-14T22:06:03.466Z,9.30
2022-09-14T22:11:09.470Z,8.45
2022-09-14T22:16:18.183Z,7.88
2022-09-14T22:21:22.513Z,7.50
2022-09-14T22:26:28.696Z,7.03
2022-09-14T22:31:33.870Z,8.88
2022-09-14T22:36:37.131Z,7.03
2022-09-14T22:41:41.949Z,6.28
2022-09-14T22:46:45.020Z,7.18
2022-09-14T22:51:48.020Z,6.72
2022-09-14T22:56:52.398Z,7.50
2022-09-14T23:01:55.481Z,8.27
2022-09-14T23:07:00.914Z,8.02
2022-09-14T23:12:05.569Z,6.55
2022-09-14T23:17:08.707Z,6.93
2022-09-14T23:22:12.233Z,8.40
2022-09-14T23:27:16.779Z,6.85
2022-09-14T23:32:19.859Z,8.02
2022-09-14T23:37:22.994Z,9.02
2022-09-14T23:42:27.374Z,8.05
2022-09-14T23:47:30.541Z,8.85
2022-09-14T23:52:33.692Z,9.15
2022-09-14T23:57:49.215Z,10.27
